createdAt,value
2019-01-02T00:00:36.203Z,7.13
2019-01-02T00:01:41.436Z,7.13
2019-01-02T00:02:46.951Z,7.12
2019-01-02T00:03:51.950Z,7.14
2019-01-02T00:04:57.135Z,7.14
2019-01-02T00:06:02.326Z,7.15
2019-01-02T00:07:07.220Z,7.17
2019-01-02T00:08:12.195Z,7.19
2019-01-02T00:09:17.396Z,7.22
2019-01-02T00:10:22.334Z,7.27
2019-01-02T00:11:27.510Z,7.29
2019-01-02T00:12:32.688Z,7.31
2019-01-02T00:13:37.606Z,7.33
2019-01-02T00:14:42.530Z,7.34
2019-01-02T00:15:47.801Z,7.35
2019-01-02T00:16:52.969Z,7.38
2019-01-02T00:17:57.877Z,7.39
2019-01-02T00:19:02.870Z,7.41
2019-01-02T00:20:10.442Z,7.41
2019-01-02T00:21:15.400Z,7.43
2019-01-02T00:22:20.381Z,7.42
2019-01-02T00:23:25.475Z,7.42
2019-01-02T00:24:30.876Z,7.43
2019-01-02T00:25:35.800Z,7.43
2019-01-02T00:26:40.997Z,7.43
2019-01-02T00:27:46.023Z,7.45
2019-01-02T00:28:51.192Z,7.46
2019-01-02T00:29:56.723Z,7.47
2019-01-02T00:31:01.640Z,7.49
2019-01-02T00:32:06.721Z,7.50
2019-01-02T00:33:11.905Z,7.51
2019-01-02T00:34:17.059Z,7.53
2019-01-02T00:35:22.058Z,7.53
2019-01-02T00:36:27.254Z,7.53
2019-01-02T00:37:32.184Z,7.52
2019-01-02T00:38:37.350Z,7.52
2019-01-02T00:39:42.554Z,7.51
2019-01-02T00:40:47.530Z,7.51
2019-01-02T00:41:52.510Z,7.51
2019-01-02T00:42:57.729Z,7.51
2019-01-02T00:44:02.654Z,7.49
2019-01-02T00:45:08.924Z,7.48
2019-01-02T00:46:14.214Z,7.49
2019-01-02T00:47:19.140Z,7.48
2019-01-02T00:48:24.130Z,7.48
2019-01-02T00:49:29.576Z,7.47
2019-01-02T00:50:34.494Z,7.47
2019-01-02T00:51:39.399Z,7.47
2019-01-02T00:52:44.670Z,7.48
2019-01-02T00:53:49.857Z,7.48
2019-01-02T00:54:54.767Z,7.48
2019-01-02T00:55:59.864Z,7.48
2019-01-02T00:57:05.389Z,7.49
2019-01-02T00:58:10.355Z,7.50
2019-01-02T00:59:15.459Z,7.50
2019-01-02T01:00:25.941Z,7.52
2019-01-02T01:01:30.927Z,7.52
2019-01-02T01:02:36.178Z,7.51
2019-01-02T01:03:41.094Z,7.51
2019-01-02T01:04:46.020Z,7.52
2019-01-02T01:05:51.377Z,7.52
2019-01-02T01:06:56.285Z,7.51
2019-01-02T01:08:01.482Z,7.52
2019-01-02T01:09:07.338Z,7.51
2019-01-02T01:10:14.312Z,7.50
2019-01-02T01:11:19.508Z,7.50
2019-01-02T01:12:24.417Z,7.51
2019-01-02T01:13:29.315Z,7.49
2019-01-02T01:14:34.754Z,7.50
2019-01-02T01:15:39.944Z,7.50
2019-01-02T01:16:45.252Z,7.50
2019-01-02T01:17:51.058Z,7.50
2019-01-02T01:18:55.971Z,7.53
2019-01-02T01:20:01.126Z,7.54
2019-01-02T01:21:06.233Z,7.55
2019-01-02T01:22:11.215Z,7.54
2019-01-02T01:23:16.152Z,7.55
2019-01-02T01:24:21.343Z,7.55
2019-01-02T01:25:26.691Z,7.54
2019-01-02T01:26:31.621Z,7.53
2019-01-02T01:27:36.555Z,7.52
2019-01-02T01:28:41.998Z,7.53
2019-01-02T01:29:46.920Z,7.53
2019-01-02T01:30:51.851Z,7.52
2019-01-02T01:31:57.059Z,7.52
2019-01-02T01:33:01.971Z,7.52
2019-01-02T01:34:06.966Z,7.54
2019-01-02T01:35:13.995Z,7.55
2019-01-02T01:36:19.433Z,7.55
2019-01-02T01:37:24.637Z,7.54
2019-01-02T01:38:29.550Z,7.54
2019-01-02T01:39:34.742Z,7.55
2019-01-02T01:40:39.651Z,7.56
2019-01-02T01:41:44.829Z,7.55
2019-01-02T01:42:49.757Z,7.57
2019-01-02T01:43:55.038Z,7.58
2019-01-02T01:44:59.943Z,7.58
2019-01-02T01:46:04.997Z,7.58
2019-01-02T01:47:11.463Z,7.58
2019-01-02T01:48:16.530Z,7.57
2019-01-02T01:49:21.692Z,7.57
2019-01-02T01:50:27.047Z,7.56
2019-01-02T01:51:31.949Z,7.56
2019-01-02T01:52:36.861Z,7.55
2019-01-02T01:53:41.785Z,7.52
2019-01-02T01:54:46.978Z,7.50
2019-01-02T01:55:52.069Z,7.47
2019-01-02T01:56:57.307Z,7.47
2019-01-02T01:58:02.493Z,7.44
2019-01-02T01:59:07.482Z,7.43
2019-01-02T02:00:15.002Z,7.41
2019-01-02T02:01:20.164Z,7.38
2019-01-02T02:02:25.371Z,7.39
2019-01-02T02:03:30.602Z,7.38
2019-01-02T02:04:35.556Z,7.37
2019-01-02T02:05:40.745Z,7.37
2019-01-02T02:06:45.657Z,7.36
2019-01-02T02:07:50.571Z,7.36
2019-01-02T02:08:55.939Z,7.36
2019-01-02T02:10:00.867Z,7.35
2019-01-02T02:11:05.910Z,7.34
2019-01-02T02:12:10.816Z,7.34
2019-01-02T02:13:15.897Z,7.31
2019-01-02T02:14:20.802Z,7.31
2019-01-02T02:15:25.768Z,7.29
2019-01-02T02:16:31.205Z,7.27
2019-01-02T02:17:36.124Z,7.24
2019-01-02T02:18:41.039Z,7.25
2019-01-02T02:19:45.938Z,7.26
2019-01-02T02:20:51.145Z,7.27
2019-01-02T02:21:56.064Z,7.29
2019-01-02T02:23:00.972Z,7.31
2019-01-02T02:24:06.219Z,7.32
2019-01-02T02:25:14.053Z,7.33
2019-01-02T02:26:19.000Z,7.34
2019-01-02T02:27:24.100Z,7.34
2019-01-02T02:28:29.087Z,7.34
2019-01-02T02:29:33.992Z,7.34
2019-01-02T02:30:39.536Z,7.34
2019-01-02T02:31:44.555Z,7.35
2019-01-02T02:32:50.960Z,7.37
2019-01-02T02:33:56.403Z,7.38
2019-01-02T02:35:01.715Z,7.40
2019-01-02T02:36:06.710Z,7.41
2019-01-02T02:37:11.899Z,7.43
2019-01-02T02:38:17.063Z,7.43
2019-01-02T02:39:22.266Z,7.44
2019-01-02T02:40:27.525Z,7.44
2019-01-02T02:41:32.437Z,7.45
2019-01-02T02:42:38.087Z,7.46
2019-01-02T02:43:43.413Z,7.46
2019-01-02T02:44:48.334Z,7.45
2019-01-02T02:45:53.845Z,7.45
2019-01-02T02:46:59.453Z,7.46
2019-01-02T02:48:04.530Z,7.46
2019-01-02T02:49:10.782Z,7.45
2019-01-02T02:50:16.739Z,7.48
2019-01-02T02:51:22.239Z,7.50
2019-01-02T02:52:27.522Z,7.51
2019-01-02T02:53:32.437Z,7.52
2019-01-02T02:54:37.619Z,7.53
2019-01-02T02:55:42.909Z,7.53
2019-01-02T02:56:47.892Z,7.51
2019-01-02T02:57:52.969Z,7.52
2019-01-02T02:58:57.915Z,7.52
2019-01-02T03:00:03.387Z,7.51
2019-01-02T03:01:08.551Z,7.53
2019-01-02T03:02:13.806Z,7.51
2019-01-02T03:03:18.896Z,7.51
2019-01-02T03:04:23.856Z,7.50
2019-01-02T03:05:28.939Z,7.48
2019-01-02T03:06:33.847Z,7.47
2019-01-02T03:07:39.033Z,7.46
2019-01-02T03:08:44.321Z,7.48
2019-01-02T03:09:49.317Z,7.48
2019-01-02T03:10:54.497Z,7.47
2019-01-02T03:11:59.673Z,7.48
2019-01-02T03:13:04.644Z,7.48
2019-01-02T03:14:09.723Z,7.47
2019-01-02T03:15:15.071Z,7.47
2019-01-02T03:16:19.973Z,7.48
2019-01-02T03:17:25.241Z,7.48
2019-01-02T03:18:30.675Z,7.46
2019-01-02T03:19:35.755Z,7.46
2019-01-02T03:20:40.960Z,7.45
2019-01-02T03:21:45.881Z,7.44
2019-01-02T03:22:51.234Z,7.45
2019-01-02T03:23:56.429Z,7.43
2019-01-02T03:25:01.348Z,7.43
2019-01-02T03:26:06.834Z,7.42
2019-01-02T03:27:12.042Z,7.41
2019-01-02T03:28:17.446Z,7.41
2019-01-02T03:29:22.645Z,7.42
2019-01-02T03:30:27.912Z,7.42
2019-01-02T03:31:33.350Z,7.43
2019-01-02T03:32:38.713Z,7.43
2019-01-02T03:33:43.977Z,7.43
2019-01-02T03:34:48.897Z,7.45
2019-01-02T03:35:53.900Z,7.43
2019-01-02T03:36:59.337Z,7.44
2019-01-02T03:38:04.627Z,7.44
2019-01-02T03:39:09.609Z,7.43
2019-01-02T03:40:14.668Z,7.44
2019-01-02T03:41:19.654Z,7.44
2019-01-02T03:42:24.579Z,7.45
2019-01-02T03:43:29.567Z,7.45
2019-01-02T03:44:34.484Z,7.45
2019-01-02T03:45:39.409Z,7.44
2019-01-02T03:46:44.319Z,7.44
2019-01-02T03:47:49.622Z,7.45
2019-01-02T03:48:54.528Z,7.44
2019-01-02T03:49:59.742Z,7.44
2019-01-02T03:51:05.012Z,7.45
2019-01-02T03:52:11.019Z,7.45
2019-01-02T03:53:16.159Z,7.44
2019-01-02T03:54:21.142Z,7.44
2019-01-02T03:55:26.047Z,7.44
2019-01-02T03:56:31.293Z,7.43
2019-01-02T03:57:36.348Z,7.42
2019-01-02T03:58:41.299Z,7.43
2019-01-02T03:59:46.559Z,7.44
2019-01-02T04:00:51.702Z,7.44
2019-01-02T04:01:56.615Z,7.43
2019-01-02T04:03:01.772Z,7.43
2019-01-02T04:04:06.940Z,7.40
2019-01-02T04:05:12.911Z,7.41
2019-01-02T04:06:18.421Z,7.40
2019-01-02T04:07:23.401Z,7.39
2019-01-02T04:08:28.799Z,7.37
2019-01-02T04:09:33.798Z,7.38
2019-01-02T04:10:38.862Z,7.39
2019-01-02T04:11:43.780Z,7.39
2019-01-02T04:12:48.741Z,7.40
2019-01-02T04:13:53.735Z,7.40
2019-01-02T04:14:58.917Z,7.41
2019-01-02T04:16:04.160Z,7.39
2019-01-02T04:17:09.063Z,7.40
2019-01-02T04:18:13.972Z,7.39
2019-01-02T04:19:19.133Z,7.38
2019-01-02T04:20:24.105Z,7.39
2019-01-02T04:21:29.263Z,7.41
2019-01-02T04:22:34.170Z,7.39
2019-01-02T04:23:39.329Z,7.37
2019-01-02T04:24:44.241Z,7.38
2019-01-02T04:25:49.236Z,7.40
2019-01-02T04:26:54.417Z,7.40
2019-01-02T04:27:59.317Z,7.40
2019-01-02T04:29:04.288Z,7.38
2019-01-02T04:30:12.102Z,7.36
2019-01-02T04:31:17.033Z,7.36
2019-01-02T04:32:22.266Z,7.36
2019-01-02T04:33:27.246Z,7.37
2019-01-02T04:34:32.645Z,7.38
2019-01-02T04:35:37.777Z,7.38
2019-01-02T04:36:42.699Z,7.37
2019-01-02T04:37:47.611Z,7.38
2019-01-02T04:38:52.612Z,7.38
2019-01-02T04:39:57.999Z,7.39
2019-01-02T04:41:02.916Z,7.42
2019-01-02T04:42:08.075Z,7.41
2019-01-02T04:43:13.051Z,7.42
2019-01-02T04:44:17.999Z,7.41
2019-01-02T04:45:22.982Z,7.41
2019-01-02T04:46:27.901Z,7.41
2019-01-02T04:47:33.087Z,7.41
2019-01-02T04:48:38.320Z,7.40
2019-01-02T04:49:43.564Z,7.40
2019-01-02T04:50:48.477Z,7.40
2019-01-02T04:51:53.638Z,7.38
2019-01-02T04:52:58.561Z,7.37
2019-01-02T04:54:03.481Z,7.37
2019-01-02T04:55:09.434Z,7.35
2019-01-02T04:56:14.605Z,7.34
2019-01-02T04:57:19.775Z,7.32
2019-01-02T04:58:24.740Z,7.32
2019-01-02T04:59:29.647Z,7.32
2019-01-02T05:00:34.644Z,7.33
2019-01-02T05:01:39.559Z,7.34
2019-01-02T05:02:44.575Z,7.35
2019-01-02T05:03:49.846Z,7.35
2019-01-02T05:04:55.610Z,7.36
2019-01-02T05:06:00.514Z,7.37
2019-01-02T05:07:05.736Z,7.36
2019-01-02T05:08:10.643Z,7.36
2019-01-02T05:09:15.566Z,7.36
2019-01-02T05:10:20.625Z,7.38
2019-01-02T05:11:25.523Z,7.38
2019-01-02T05:12:30.439Z,7.38
2019-01-02T05:13:35.377Z,7.38
2019-01-02T05:14:40.428Z,7.37
2019-01-02T05:15:45.558Z,7.36
2019-01-02T05:16:50.594Z,7.35
2019-01-02T05:17:55.506Z,7.35
2019-01-02T05:19:00.421Z,7.34
2019-01-02T05:20:07.124Z,7.34
2019-01-02T05:21:12.108Z,7.35
2019-01-02T05:22:17.322Z,7.36
2019-01-02T05:23:22.237Z,7.38
2019-01-02T05:24:27.423Z,7.37
2019-01-02T05:25:32.906Z,7.39
2019-01-02T05:26:38.095Z,7.38
2019-01-02T05:27:43.255Z,7.36
2019-01-02T05:28:48.172Z,7.36
2019-01-02T05:29:53.587Z,7.33
2019-01-02T05:30:58.513Z,7.32
2019-01-02T05:32:03.576Z,7.30
2019-01-02T05:33:08.550Z,7.29
2019-01-02T05:34:13.714Z,7.29
2019-01-02T05:35:18.746Z,7.29
2019-01-02T05:36:23.954Z,7.28
2019-01-02T05:37:28.859Z,7.26
2019-01-02T05:38:33.777Z,7.25
2019-01-02T05:39:38.940Z,7.23
2019-01-02T05:40:43.920Z,7.22
2019-01-02T05:41:48.912Z,7.20
2019-01-02T05:42:53.965Z,7.21
2019-01-02T05:43:58.888Z,7.19
2019-01-02T05:45:04.740Z,7.18
2019-01-02T05:46:09.993Z,7.18
2019-01-02T05:47:14.991Z,7.17
2019-01-02T05:48:19.978Z,7.17
2019-01-02T05:49:24.905Z,7.17
2019-01-02T05:50:30.062Z,7.16
2019-01-02T05:51:35.294Z,7.18
2019-01-02T05:52:40.297Z,7.17
2019-01-02T05:53:45.196Z,7.16
2019-01-02T05:54:50.474Z,7.17
2019-01-02T05:55:55.390Z,7.18
2019-01-02T05:57:00.382Z,7.19
2019-01-02T05:58:06.255Z,7.20
2019-01-02T05:59:11.404Z,7.20
2019-01-02T06:00:16.575Z,7.21
2019-01-02T06:01:21.524Z,7.21
2019-01-02T06:02:26.461Z,7.22
2019-01-02T06:03:31.385Z,7.21
2019-01-02T06:04:36.389Z,7.21
2019-01-02T06:05:41.314Z,7.21
2019-01-02T06:06:46.283Z,7.23
2019-01-02T06:07:51.167Z,7.23
2019-01-02T06:08:56.094Z,7.22
2019-01-02T06:10:01.011Z,7.25
2019-01-02T06:11:05.923Z,7.25
2019-01-02T06:12:10.921Z,7.26
2019-01-02T06:13:16.073Z,7.25
2019-01-02T06:14:21.051Z,7.27
2019-01-02T06:15:26.038Z,7.29
2019-01-02T06:16:31.022Z,7.30
2019-01-02T06:17:35.950Z,7.30
2019-01-02T06:18:40.849Z,7.31
2019-01-02T06:19:46.016Z,7.30
2019-01-02T06:20:51.349Z,7.28
2019-01-02T06:21:56.268Z,7.25
2019-01-02T06:23:01.422Z,7.22
2019-01-02T06:24:06.404Z,7.21
2019-01-02T06:25:11.653Z,7.18
2019-01-02T06:26:16.562Z,7.16
2019-01-02T06:27:21.555Z,7.15
2019-01-02T06:28:26.633Z,7.12
2019-01-02T06:29:31.821Z,7.11
2019-01-02T06:30:36.742Z,7.09
2019-01-02T06:31:41.676Z,7.08
2019-01-02T06:32:47.025Z,7.07
2019-01-02T06:33:52.008Z,7.06
2019-01-02T06:34:56.913Z,7.07
2019-01-02T06:36:01.879Z,7.07
2019-01-02T06:37:06.860Z,7.08
2019-01-02T06:38:12.289Z,7.09
2019-01-02T06:39:17.194Z,7.11
2019-01-02T06:40:22.415Z,7.11
2019-01-02T06:41:27.406Z,7.12
2019-01-02T06:42:32.334Z,7.14
2019-01-02T06:43:37.258Z,7.14
2019-01-02T06:44:42.177Z,7.16
2019-01-02T06:45:47.210Z,7.16
2019-01-02T06:46:52.224Z,7.17
2019-01-02T06:47:57.137Z,7.17
2019-01-02T06:49:02.204Z,7.17
2019-01-02T06:50:10.300Z,7.16
2019-01-02T06:51:15.267Z,7.16
2019-01-02T06:52:20.205Z,7.18
2019-01-02T06:53:25.115Z,7.17
2019-01-02T06:54:30.514Z,7.17
2019-01-02T06:55:35.616Z,7.18
2019-01-02T06:56:40.989Z,7.19
2019-01-02T06:57:45.918Z,7.18
2019-01-02T06:58:52.566Z,7.19
2019-01-02T06:59:57.464Z,7.20
2019-01-02T07:01:03.358Z,7.22
2019-01-02T07:02:08.272Z,7.23
2019-01-02T07:03:13.502Z,7.23
2019-01-02T07:04:18.413Z,7.23
2019-01-02T07:05:23.582Z,7.24
2019-01-02T07:06:28.753Z,7.24
2019-01-02T07:07:33.900Z,7.25
2019-01-02T07:08:39.380Z,7.25
2019-01-02T07:09:44.353Z,7.26
2019-01-02T07:10:49.345Z,7.24
2019-01-02T07:11:54.264Z,7.23
2019-01-02T07:12:59.420Z,7.22
2019-01-02T07:14:04.412Z,7.21
2019-01-02T07:15:09.724Z,7.19
2019-01-02T07:16:14.652Z,7.17
2019-01-02T07:17:19.583Z,7.15
2019-01-02T07:18:24.561Z,7.16
2019-01-02T07:19:29.725Z,7.15
2019-01-02T07:20:34.705Z,7.13
2019-01-02T07:21:39.629Z,7.12
2019-01-02T07:22:44.829Z,7.12
2019-01-02T07:23:49.748Z,7.10
2019-01-02T07:24:54.810Z,7.11
2019-01-02T07:25:59.735Z,7.11
2019-01-02T07:27:04.712Z,7.10
2019-01-02T07:28:09.692Z,7.11
2019-01-02T07:29:14.627Z,7.11
2019-01-02T07:30:21.903Z,7.11
2019-01-02T07:31:26.879Z,7.12
2019-01-02T07:32:31.825Z,7.13
2019-01-02T07:33:44.590Z,7.12
2019-01-02T07:35:18.970Z,7.12
2019-01-02T07:37:12.803Z,7.14
2019-01-02T07:39:14.044Z,7.13
2019-01-02T07:40:49.060Z,7.12
2019-01-02T07:42:38.249Z,7.11
2019-01-02T07:44:19.829Z,7.11
2019-01-02T07:45:51.229Z,7.12
2019-01-02T07:47:32.341Z,7.09
2019-01-02T07:49:13.954Z,7.08
2019-01-02T07:50:52.230Z,7.08
2019-01-02T07:52:39.741Z,7.08
2019-01-02T07:54:40.606Z,7.07
2019-01-02T07:56:28.674Z,7.04
2019-01-02T07:58:26.639Z,7.03
2019-01-02T08:00:17.484Z,7.03
2019-01-02T08:01:47.826Z,7.04
2019-01-02T08:03:23.090Z,7.05
2019-01-02T08:04:42.387Z,7.04
2019-01-02T08:06:19.391Z,7.05
2019-01-02T08:08:00.569Z,7.06
2019-01-02T08:09:36.516Z,7.08
2019-01-02T08:11:02.380Z,7.07
2019-01-02T08:12:35.385Z,7.07
2019-01-02T08:14:27.615Z,7.06
2019-01-02T08:16:09.047Z,7.07
2019-01-02T08:17:53.380Z,7.08
2019-01-02T08:19:27.035Z,7.06
2019-01-02T08:21:01.501Z,7.08
2019-01-02T08:22:35.461Z,7.08
2019-01-02T08:24:09.012Z,7.09
2019-01-02T08:25:57.336Z,7.11
2019-01-02T08:27:27.656Z,7.12
2019-01-02T08:29:00.911Z,7.14
2019-01-02T08:31:11.031Z,7.15
2019-01-02T08:32:33.262Z,7.15
2019-01-02T08:34:20.945Z,7.13
2019-01-02T08:35:55.506Z,7.13
2019-01-02T08:37:41.487Z,7.12
2019-01-02T08:39:14.829Z,7.13
2019-01-02T08:41:01.024Z,7.13
2019-01-02T08:42:45.611Z,7.14
2019-01-02T08:44:18.397Z,7.17
2019-01-02T08:46:19.559Z,7.19
2019-01-02T08:47:46.134Z,7.21
2019-01-02T08:49:07.433Z,7.19
2019-01-02T08:50:32.437Z,7.21
2019-01-02T08:52:08.390Z,7.21
2019-01-02T08:53:34.758Z,7.22
2019-01-02T08:55:15.078Z,7.23
2019-01-02T08:57:14.456Z,7.22
2019-01-02T08:59:01.945Z,7.23
2019-01-02T09:00:42.724Z,7.23
2019-01-02T09:02:13.154Z,7.23
2019-01-02T09:03:57.553Z,7.24
2019-01-02T09:05:19.305Z,7.27
2019-01-02T09:07:26.640Z,7.29
2019-01-02T09:09:07.295Z,7.29
2019-01-02T09:10:47.316Z,7.31
2019-01-02T09:12:09.437Z,7.30
2019-01-02T09:13:49.934Z,7.28
2019-01-02T09:15:31.298Z,7.27
2019-01-02T09:16:48.422Z,7.26
2019-01-02T09:18:33.789Z,7.29
2019-01-02T09:19:53.646Z,7.31
2019-01-02T09:21:36.217Z,7.33
2019-01-02T09:23:03.357Z,7.34
2019-01-02T09:25:04.574Z,7.36
2019-01-02T09:27:00.025Z,7.38
2019-01-02T09:28:19.183Z,7.38
2019-01-02T09:29:51.799Z,7.41
2019-01-02T09:31:23.224Z,7.41
2019-01-02T09:33:08.079Z,7.44
2019-01-02T09:34:51.368Z,7.46
2019-01-02T09:36:43.380Z,7.46
2019-01-02T09:38:13.546Z,7.45
2019-01-02T09:40:04.665Z,7.44
2019-01-02T09:41:32.101Z,7.45
2019-01-02T09:42:56.895Z,7.46
2019-01-02T09:44:54.821Z,7.47
2019-01-02T09:46:48.986Z,7.47
2019-01-02T09:48:33.565Z,7.47
2019-01-02T09:50:05.858Z,7.49
2019-01-02T09:51:45.821Z,7.50
2019-01-02T09:53:22.482Z,7.50
2019-01-02T09:54:51.442Z,7.51
2019-01-02T09:56:43.547Z,7.53
2019-01-02T09:58:38.409Z,7.53
2019-01-02T10:00:21.713Z,7.55
2019-01-02T10:02:05.097Z,7.57
2019-01-02T10:03:48.991Z,7.58
2019-01-02T10:05:34.016Z,7.63
2019-01-02T10:07:00.184Z,7.62
2019-01-02T10:08:44.038Z,7.61
2019-01-02T10:10:25.300Z,7.58
2019-01-02T10:11:39.327Z,7.56
2019-01-02T10:12:54.594Z,7.54
2019-01-02T10:14:15.554Z,7.51
2019-01-02T10:15:53.582Z,7.50
2019-01-02T10:17:42.307Z,7.48
2019-01-02T10:19:27.335Z,7.45
2019-01-02T10:21:09.857Z,7.43
2019-01-02T10:22:51.845Z,7.41
2019-01-02T10:24:47.039Z,7.36
2019-01-02T10:26:27.463Z,7.33
2019-01-02T10:28:28.620Z,7.31
2019-01-02T10:30:17.792Z,7.29
2019-01-02T10:32:00.113Z,7.28
2019-01-02T10:33:42.145Z,7.27
2019-01-02T10:35:10.077Z,7.27
2019-01-02T10:37:02.082Z,7.27
2019-01-02T10:38:44.140Z,7.28
2019-01-02T10:40:21.128Z,7.31
2019-01-02T10:42:00.232Z,7.33
2019-01-02T10:44:08.062Z,7.35
2019-01-02T10:45:51.361Z,7.38
2019-01-02T10:47:31.249Z,7.41
2019-01-02T10:49:02.460Z,7.46
2019-01-02T10:50:31.813Z,7.51
2019-01-02T10:52:19.199Z,7.56
2019-01-02T10:53:58.571Z,7.62
2019-01-02T10:55:26.701Z,7.68
2019-01-02T10:56:52.952Z,7.75
2019-01-02T10:58:42.824Z,7.80
2019-01-02T11:00:20.515Z,7.86
2019-01-02T11:02:01.868Z,7.94
2019-01-02T11:03:29.932Z,7.98
2019-01-02T11:05:06.849Z,8.03
2019-01-02T11:06:49.717Z,8.01
2019-01-02T11:08:05.413Z,8.00
2019-01-02T11:09:47.189Z,7.97
2019-01-02T11:11:31.566Z,7.99
2019-01-02T11:13:04.157Z,7.98
2019-01-02T11:14:29.258Z,8.03
2019-01-02T11:16:09.661Z,8.05
2019-01-02T11:17:50.586Z,8.04
2019-01-02T11:19:51.676Z,8.03
2019-01-02T11:21:32.292Z,8.02
2019-01-02T11:23:33.169Z,8.00
2019-01-02T11:25:04.486Z,7.96
2019-01-02T11:26:43.736Z,7.93
2019-01-02T11:28:34.793Z,7.92
2019-01-02T11:30:06.552Z,7.90
2019-01-02T11:31:51.583Z,7.88
2019-01-02T11:33:21.059Z,7.83
2019-01-02T11:34:52.373Z,7.82
2019-01-02T11:36:13.097Z,7.80
2019-01-02T11:37:31.996Z,7.80
2019-01-02T11:39:00.577Z,7.79
2019-01-02T11:40:42.330Z,7.80
2019-01-02T11:42:17.805Z,7.83
2019-01-02T11:43:58.457Z,7.88
2019-01-02T11:45:06.942Z,7.88
2019-01-02T11:46:11.858Z,7.88
2019-01-02T11:47:17.259Z,7.91
2019-01-02T11:48:22.185Z,7.93
2019-01-02T11:49:27.106Z,7.95
2019-01-02T11:50:32.042Z,7.96
2019-01-02T11:51:36.970Z,8.00
2019-01-02T11:52:41.981Z,8.03
2019-01-02T11:53:46.959Z,8.06
2019-01-02T11:54:51.889Z,8.09
2019-01-02T11:55:56.808Z,8.09
2019-01-02T11:57:01.720Z,8.12
2019-01-02T11:58:06.713Z,8.17
2019-01-02T11:59:11.716Z,8.20
2019-01-02T12:00:17.560Z,8.23
2019-01-02T12:01:22.567Z,8.24
2019-01-02T12:02:27.498Z,8.23
2019-01-02T12:03:32.420Z,8.23
2019-01-02T12:04:37.347Z,8.22
2019-01-02T12:05:42.530Z,8.23
2019-01-02T12:06:47.458Z,8.23
2019-01-02T12:07:52.684Z,8.21
2019-01-02T12:08:57.640Z,8.22
2019-01-02T12:10:02.556Z,8.24
2019-01-02T12:11:08.793Z,8.24
2019-01-02T12:12:13.710Z,8.26
2019-01-02T12:13:18.635Z,8.26
2019-01-02T12:14:23.853Z,8.26
2019-01-02T12:15:29.157Z,8.27
2019-01-02T12:16:34.102Z,8.27
2019-01-02T12:17:39.355Z,8.30
2019-01-02T12:18:44.268Z,8.33
2019-01-02T12:19:49.191Z,8.35
2019-01-02T12:20:54.208Z,8.38
2019-01-02T12:21:59.150Z,8.42
2019-01-02T12:23:04.419Z,8.44
2019-01-02T12:24:09.329Z,8.46
2019-01-02T12:25:14.290Z,8.49
2019-01-02T12:26:19.274Z,8.51
2019-01-02T12:27:24.195Z,8.54
2019-01-02T12:28:29.111Z,8.59
2019-01-02T12:29:34.029Z,8.60
2019-01-02T12:30:39.191Z,8.63
2019-01-02T12:31:44.421Z,8.64
2019-01-02T12:32:49.352Z,8.66
2019-01-02T12:33:54.597Z,8.67
2019-01-02T12:34:59.861Z,8.69
2019-01-02T12:36:05.159Z,8.72
2019-01-02T12:37:10.226Z,8.76
2019-01-02T12:38:15.290Z,8.77
2019-01-02T12:39:20.217Z,8.79
2019-01-02T12:40:25.126Z,8.82
2019-01-02T12:41:30.121Z,8.81
2019-01-02T12:42:35.046Z,8.80
2019-01-02T12:43:40.234Z,8.81
2019-01-02T12:44:45.396Z,8.82
2019-01-02T12:45:50.560Z,8.82
2019-01-02T12:46:55.757Z,8.84
2019-01-02T12:48:00.682Z,8.84
2019-01-02T12:49:05.618Z,8.85
2019-01-02T12:50:10.831Z,8.87
2019-01-02T12:51:15.748Z,8.85
2019-01-02T12:52:20.666Z,8.84
2019-01-02T12:53:25.587Z,8.84
2019-01-02T12:54:30.543Z,8.84
2019-01-02T12:55:35.534Z,8.84
2019-01-02T12:56:40.470Z,8.86
2019-01-02T12:57:45.488Z,8.84
2019-01-02T12:58:50.734Z,8.83
2019-01-02T12:59:55.689Z,8.84
2019-01-02T13:01:06.427Z,8.83
2019-01-02T13:02:28.350Z,8.84
2019-01-02T13:04:13.286Z,8.84
2019-01-02T13:05:44.329Z,8.82
2019-01-02T13:07:35.201Z,8.82
2019-01-02T13:09:10.225Z,8.80
2019-01-02T13:10:57.687Z,8.78
2019-01-02T13:12:36.178Z,8.78
2019-01-02T13:14:18.417Z,8.76
2019-01-02T13:16:00.065Z,8.72
2019-01-02T13:17:19.059Z,8.66
2019-01-02T13:18:50.263Z,8.62
2019-01-02T13:20:32.511Z,8.58
2019-01-02T13:22:12.910Z,8.57
2019-01-02T13:23:50.159Z,8.55
2019-01-02T13:25:45.006Z,8.53
2019-01-02T13:27:40.102Z,8.54
2019-01-02T13:29:47.118Z,8.58
2019-01-02T13:31:11.149Z,8.59
2019-01-02T13:32:36.564Z,8.59
2019-01-02T13:34:20.083Z,8.60
2019-01-02T13:36:02.693Z,8.59
2019-01-02T13:37:16.111Z,8.61
2019-01-02T13:38:45.144Z,8.64
2019-01-02T13:40:36.023Z,8.65
2019-01-02T13:41:53.862Z,8.67
2019-01-02T13:43:23.757Z,8.70
2019-01-02T13:45:06.813Z,8.69
2019-01-02T13:46:20.669Z,8.68
2019-01-02T13:48:01.147Z,8.68
2019-01-02T13:49:40.679Z,8.69
2019-01-02T13:51:04.003Z,8.71
2019-01-02T13:52:09.241Z,8.70
2019-01-02T13:53:15.141Z,8.70
2019-01-02T13:54:20.225Z,8.70
2019-01-02T13:55:25.377Z,8.70
2019-01-02T13:56:32.406Z,8.70
2019-01-02T13:57:37.898Z,8.72
2019-01-02T13:58:43.163Z,8.73
2019-01-02T13:59:48.076Z,8.72
2019-01-02T14:00:53.262Z,8.73
2019-01-02T14:01:59.426Z,8.76
2019-01-02T14:03:04.311Z,8.76
2019-01-02T14:04:10.107Z,8.77
2019-01-02T14:05:18.437Z,8.75
2019-01-02T14:06:23.360Z,8.76
2019-01-02T14:07:28.280Z,8.75
2019-01-02T14:08:33.266Z,8.76
2019-01-02T14:09:38.194Z,8.78
2019-01-02T14:10:43.190Z,8.78
2019-01-02T14:11:48.104Z,8.80
2019-01-02T14:12:53.002Z,8.81
2019-01-02T14:13:58.001Z,8.82
2019-01-02T14:15:02.921Z,8.80
2019-01-02T14:16:09.266Z,8.80
2019-01-02T14:17:14.427Z,8.80
2019-01-02T14:18:19.334Z,8.80
2019-01-02T14:19:24.253Z,8.78
2019-01-02T14:20:29.198Z,8.79
2019-01-02T14:21:34.420Z,8.81
2019-01-02T14:22:39.330Z,8.81
2019-01-02T14:23:44.247Z,8.81
2019-01-02T14:24:49.806Z,8.81
2019-01-02T14:25:54.726Z,8.82
2019-01-02T14:27:00.125Z,8.82
2019-01-02T14:28:05.146Z,8.82
2019-01-02T14:29:10.143Z,8.80
2019-01-02T14:30:15.130Z,8.80
2019-01-02T14:31:20.401Z,8.80
2019-01-02T14:32:25.553Z,8.79
2019-01-02T14:33:30.471Z,8.77
2019-01-02T14:34:35.391Z,8.76
2019-01-02T14:35:40.530Z,8.75
2019-01-02T14:36:45.470Z,8.74
2019-01-02T14:37:50.449Z,8.76
2019-01-02T14:38:55.391Z,8.76
2019-01-02T14:40:00.405Z,8.76
2019-01-02T14:41:05.519Z,8.74
2019-01-02T14:42:10.689Z,8.74
2019-01-02T14:43:15.752Z,8.73
2019-01-02T14:44:20.667Z,8.72
2019-01-02T14:45:25.653Z,8.71
2019-01-02T14:46:30.573Z,8.68
2019-01-02T14:47:35.503Z,8.67
2019-01-02T14:48:40.491Z,8.64
2019-01-02T14:49:45.580Z,8.60
2019-01-02T14:50:50.489Z,8.57
2019-01-02T14:51:55.417Z,8.54
2019-01-02T14:53:00.346Z,8.52
2019-01-02T14:54:05.586Z,8.48
2019-01-02T14:55:10.503Z,8.47
2019-01-02T14:56:15.498Z,8.44
2019-01-02T14:57:20.429Z,8.42
2019-01-02T14:58:25.439Z,8.38
2019-01-02T14:59:30.346Z,8.35
2019-01-02T15:00:35.527Z,8.33
2019-01-02T15:01:40.438Z,8.32
2019-01-02T15:02:45.355Z,8.31
2019-01-02T15:03:50.285Z,8.28
2019-01-02T15:04:55.241Z,8.27
2019-01-02T15:06:00.324Z,8.24
2019-01-02T15:07:05.229Z,8.23
2019-01-02T15:08:10.142Z,8.21
2019-01-02T15:09:15.677Z,8.20
2019-01-02T15:10:20.830Z,8.18
2019-01-02T15:11:25.800Z,8.15
2019-01-02T15:12:30.820Z,8.14
2019-01-02T15:13:35.773Z,8.13
2019-01-02T15:14:40.831Z,8.12
2019-01-02T15:15:45.762Z,8.10
2019-01-02T15:16:50.701Z,8.08
2019-01-02T15:17:55.618Z,8.07
2019-01-02T15:19:01.446Z,8.05
2019-01-02T15:20:07.878Z,8.04
2019-01-02T15:21:12.793Z,8.03
2019-01-02T15:22:17.744Z,8.03
2019-01-02T15:23:22.643Z,8.01
2019-01-02T15:24:27.813Z,7.98
2019-01-02T15:25:33.019Z,7.98
2019-01-02T15:26:37.937Z,7.96
2019-01-02T15:27:43.092Z,7.95
2019-01-02T15:28:48.102Z,7.96
2019-01-02T15:29:53.088Z,7.94
2019-01-02T15:30:58.013Z,7.95
2019-01-02T15:32:02.917Z,7.94
2019-01-02T15:33:07.958Z,7.93
2019-01-02T15:34:13.141Z,7.95
2019-01-02T15:35:18.266Z,7.95
2019-01-02T15:36:23.186Z,7.95
2019-01-02T15:37:28.281Z,7.96
2019-01-02T15:38:33.234Z,7.96
2019-01-02T15:39:38.397Z,7.96
2019-01-02T15:40:43.339Z,7.95
2019-01-02T15:41:48.275Z,7.97
2019-01-02T15:42:53.189Z,7.98
2019-01-02T15:43:58.111Z,8.00
2019-01-02T15:45:03.068Z,8.01
2019-01-02T15:46:08.066Z,8.01
2019-01-02T15:47:12.981Z,8.02
2019-01-02T15:48:17.900Z,8.03
2019-01-02T15:49:22.802Z,8.03
2019-01-02T15:50:27.853Z,8.04
2019-01-02T15:51:32.783Z,8.02
2019-01-02T15:52:37.700Z,8.01
2019-01-02T15:53:42.625Z,8.02
2019-01-02T15:54:47.550Z,7.99
2019-01-02T15:55:52.545Z,7.98
2019-01-02T15:56:57.480Z,7.97
2019-01-02T15:58:02.406Z,7.96
2019-01-02T15:59:07.344Z,7.95
2019-01-02T16:00:13.874Z,7.93
2019-01-02T16:01:19.029Z,7.90
2019-01-02T16:02:24.199Z,7.88
2019-01-02T16:03:29.198Z,7.87
2019-01-02T16:04:34.226Z,7.85
2019-01-02T16:05:39.192Z,7.85
2019-01-02T16:06:44.098Z,7.84
2019-01-02T16:07:49.014Z,7.83
2019-01-02T16:08:54.298Z,7.83
2019-01-02T16:09:59.268Z,7.83